sensor_id;sensor_type;location;lat;lon;timestamp;pressure;altitude;pressure_sealevel;temperature;humidity
20825;BME280;10573;50.936;6.978;2022-08-07T00:01:27;102132.03;;;17.88;46.63
20825;BME280;10573;50.936;6.978;2022-08-07T00:03:53;102125.22;;;17.74;47.03
20825;BME280;10573;50.936;6.978;2022-08-07T00:06:18;102139.06;;;17.83;47.36
20825;BME280;10573;50.936;6.978;2022-08-07T00:08:43;102130.00;;;17.72;47.67
20825;BME280;10573;50.936;6.978;2022-08-07T00:11:09;102122.69;;;17.63;47.94
20825;BME280;10573;50.936;6.978;2022-08-07T00:13:34;102128.44;;;17.70;48.06
20825;BME280;10573;50.936;6.978;2022-08-07T00:16:02;102131.13;;;17.61;48.07
20825;BME280;10573;50.936;6.978;2022-08-07T00:18:28;102120.25;;;17.60;48.32
20825;BME280;10573;50.936;6.978;2022-08-07T00:21:01;102123.00;;;17.60;48.09
20825;BME280;10573;50.936;6.978;2022-08-07T00:23:28;102119.41;;;17.59;48.03
20825;BME280;10573;50.936;6.978;2022-08-07T00:25:54;102117.25;;;17.53;48.05
20825;BME280;10573;50.936;6.978;2022-08-07T00:28:20;102109.50;;;17.49;48.29
20825;BME280;10573;50.936;6.978;2022-08-07T00:30:45;102107.03;;;17.45;48.01
20825;BME280;10573;50.936;6.978;2022-08-07T00:33:11;102103.75;;;17.42;47.87
20825;BME280;10573;50.936;6.978;2022-08-07T00:35:37;102103.25;;;17.47;47.74
20825;BME280;10573;50.936;6.978;2022-08-07T00:38:03;102103.25;;;17.47;48.01
20825;BME280;10573;50.936;6.978;2022-08-07T00:40:28;102105.44;;;17.43;48.94
20825;BME280;10573;50.936;6.978;2022-08-07T00:42:54;102101.69;;;17.44;48.69
20825;BME280;10573;50.936;6.978;2022-08-07T00:45:20;102114.53;;;17.35;48.52
20825;BME280;10573;50.936;6.978;2022-08-07T00:47:46;102103.19;;;17.38;48.79
20825;BME280;10573;50.936;6.978;2022-08-07T00:50:12;102116.31;;;17.26;49.24
20825;BME280;10573;50.936;6.978;2022-08-07T00:52:38;102107.72;;;17.30;49.29
20825;BME280;10573;50.936;6.978;2022-08-07T00:55:03;102103.72;;;17.24;49.22
20825;BME280;10573;50.936;6.978;2022-08-07T00:57:29;102097.88;;;17.09;49.78
20825;BME280;10573;50.936;6.978;2022-08-07T00:59:55;102099.06;;;17.06;49.63
20825;BME280;10573;50.936;6.978;2022-08-07T01:02:22;102102.28;;;17.20;49.08
20825;BME280;10573;50.936;6.978;2022-08-07T01:04:48;102095.59;;;17.04;49.91
20825;BME280;10573;50.936;6.978;2022-08-07T01:07:14;102092.13;;;17.02;49.97
20825;BME280;10573;50.936;6.978;2022-08-07T01:09:40;102087.84;;;16.90;50.51
20825;BME280;10573;50.936;6.978;2022-08-07T01:12:06;102091.81;;;16.77;50.50
20825;BME280;10573;50.936;6.978;2022-08-07T01:14:31;102087.63;;;16.73;50.95
20825;BME280;10573;50.936;6.978;2022-08-07T01:16:57;102096.00;;;16.82;50.77
20825;BME280;10573;50.936;6.978;2022-08-07T01:19:25;102094.97;;;16.55;51.44
20825;BME280;10573;50.936;6.978;2022-08-07T01:21:51;102092.13;;;16.47;52.04
20825;BME280;10573;50.936;6.978;2022-08-07T01:24:18;102093.28;;;16.44;51.57
20825;BME280;10573;50.936;6.978;2022-08-07T01:26:45;102090.22;;;16.47;51.97
20825;BME280;10573;50.936;6.978;2022-08-07T01:29:11;102083.59;;;16.40;51.92
20825;BME280;10573;50.936;6.978;2022-08-07T01:31:37;102088.38;;;16.38;52.02
20825;BME280;10573;50.936;6.978;2022-08-07T01:34:03;102095.34;;;16.32;52.29
20825;BME280;10573;50.936;6.978;2022-08-07T01:36:30;102083.22;;;16.25;52.75
20825;BME280;10573;50.936;6.978;2022-08-07T01:38:56;102080.06;;;16.20;52.43
20825;BME280;10573;50.936;6.978;2022-08-07T01:41:22;102079.47;;;16.16;53.27
20825;BME280;10573;50.936;6.978;2022-08-07T01:43:49;102086.25;;;16.22;52.54
20825;BME280;10573;50.936;6.978;2022-08-07T01:46:15;102082.81;;;16.20;53.29
20825;BME280;10573;50.936;6.978;2022-08-07T01:48:46;102078.47;;;16.17;52.44
20825;BME280;10573;50.936;6.978;2022-08-07T01:51:13;102083.38;;;16.14;52.74
20825;BME280;10573;50.936;6.978;2022-08-07T01:53:44;102076.34;;;16.01;53.68
20825;BME280;10573;50.936;6.978;2022-08-07T01:56:41;102083.84;;;15.99;53.48
20825;BME280;10573;50.936;6.978;2022-08-07T01:59:16;102083.88;;;15.89;53.85
20825;BME280;10573;50.936;6.978;2022-08-07T02:01:47;102080.13;;;15.90;53.61
20825;BME280;10573;50.936;6.978;2022-08-07T02:04:19;102088.22;;;15.92;53.96
20825;BME280;10573;50.936;6.978;2022-08-07T02:06:48;102088.22;;;15.92;54.02
20825;BME280;10573;50.936;6.978;2022-08-07T02:09:16;102096.88;;;15.77;54.16
20825;BME280;10573;50.936;6.978;2022-08-07T02:11:44;102085.19;;;15.75;54.51
20825;BME280;10573;50.936;6.978;2022-08-07T02:14:11;102100.50;;;15.68;54.90
20825;BME280;10573;50.936;6.978;2022-08-07T02:16:38;102091.56;;;15.66;55.11
20825;BME280;10573;50.936;6.978;2022-08-07T02:19:09;102082.97;;;15.79;54.84
20825;BME280;10573;50.936;6.978;2022-08-07T02:21:37;102089.09;;;15.83;55.24
20825;BME280;10573;50.936;6.978;2022-08-07T02:24:04;102091.38;;;15.77;55.69
20825;BME280;10573;50.936;6.978;2022-08-07T02:26:31;102086.34;;;15.63;56.30
20825;BME280;10573;50.936;6.978;2022-08-07T02:28:57;102089.97;;;15.64;56.33
20825;BME280;10573;50.936;6.978;2022-08-07T02:31:24;102082.28;;;15.57;56.28
20825;BME280;10573;50.936;6.978;2022-08-07T02:33:52;102086.91;;;15.67;56.53
20825;BME280;10573;50.936;6.978;2022-08-07T02:36:19;102081.72;;;15.64;56.72
20825;BME280;10573;50.936;6.978;2022-08-07T02:38:46;102085.19;;;15.56;57.22
20825;BME280;10573;50.936;6.978;2022-08-07T02:41:11;102088.38;;;15.61;57.03
20825;BME280;10573;50.936;6.978;2022-08-07T02:43:40;102082.75;;;15.53;57.25
20825;BME280;10573;50.936;6.978;2022-08-07T02:46:07;102082.16;;;15.39;57.58
20825;BME280;10573;50.936;6.978;2022-08-07T02:48:33;102077.25;;;15.53;57.24
20825;BME280;10573;50.936;6.978;2022-08-07T02:51:04;102075.09;;;15.56;56.93
20825;BME280;10573;50.936;6.978;2022-08-07T02:53:33;102069.03;;;15.43;57.31
20825;BME280;10573;50.936;6.978;2022-08-07T02:56:01;102072.63;;;15.43;57.24
20825;BME280;10573;50.936;6.978;2022-08-07T02:58:30;102071.19;;;15.39;57.69
20825;BME280;10573;50.936;6.978;2022-08-07T03:00:57;102072.47;;;15.45;57.49
20825;BME280;10573;50.936;6.978;2022-08-07T03:03:26;102074.34;;;15.25;57.92
20825;BME280;10573;50.936;6.978;2022-08-07T03:05:53;102069.16;;;15.22;58.43
20825;BME280;10573;50.936;6.978;2022-08-07T03:08:21;102069.28;;;15.30;58.22
20825;BME280;10573;50.936;6.978;2022-08-07T03:10:47;102078.69;;;15.37;58.09
20825;BME280;10573;50.936;6.978;2022-08-07T03:13:16;102072.34;;;15.27;58.22
20825;BME280;10573;50.936;6.978;2022-08-07T03:15:43;102065.66;;;15.20;58.48
20825;BME280;10573;50.936;6.978;2022-08-07T03:18:09;102072.88;;;15.01;58.80
20825;BME280;10573;50.936;6.978;2022-08-07T03:20:35;102072.88;;;15.01;59.18
20825;BME280;10573;50.936;6.978;2022-08-07T03:23:01;102081.22;;;14.90;59.73
20825;BME280;10573;50.936;6.978;2022-08-07T03:25:28;102078.78;;;14.87;59.29
20825;BME280;10573;50.936;6.978;2022-08-07T03:27:56;102083.69;;;14.93;59.27
20825;BME280;10573;50.936;6.978;2022-08-07T03:30:22;102083.13;;;14.99;59.05
20825;BME280;10573;50.936;6.978;2022-08-07T03:32:51;102087.31;;;14.93;59.19
20825;BME280;10573;50.936;6.978;2022-08-07T03:35:22;102079.94;;;14.84;59.44
20825;BME280;10573;50.936;6.978;2022-08-07T03:38:02;102078.88;;;14.75;59.38
20825;BME280;10573;50.936;6.978;2022-08-07T03:40:28;102078.00;;;14.65;60.20
20825;BME280;10573;50.936;6.978;2022-08-07T03:42:54;102073.53;;;14.74;60.02
20825;BME280;10573;50.936;6.978;2022-08-07T03:45:22;102079.38;;;14.59;60.50
20825;BME280;10573;50.936;6.978;2022-08-07T03:47:49;102080.16;;;14.71;60.52
20825;BME280;10573;50.936;6.978;2022-08-07T03:50:16;102074.38;;;14.65;60.41
20825;BME280;10573;50.936;6.978;2022-08-07T03:52:44;102072.22;;;14.68;60.19
20825;BME280;10573;50.936;6.978;2022-08-07T03:55:11;102080.03;;;14.73;60.10
20825;BME280;10573;50.936;6.978;2022-08-07T03:57:37;102086.28;;;14.54;60.33
20825;BME280;10573;50.936;6.978;2022-08-07T04:00:03;102077.66;;;14.58;60.72
20825;BME280;10573;50.936;6.978;2022-08-07T04:02:28;102080.50;;;14.57;60.76
20825;BME280;10573;50.936;6.978;2022-08-07T04:04:54;102079.66;;;14.56;60.19
20825;BME280;10573;50.936;6.978;2022-08-07T04:07:20;102075.03;;;14.57;60.14
20825;BME280;10573;50.936;6.978;2022-08-07T04:09:46;102076.88;;;14.47;60.15
20825;BME280;10573;50.936;6.978;2022-08-07T04:12:13;102079.03;;;14.43;60.01
20825;BME280;10573;50.936;6.978;2022-08-07T04:14:40;102076.06;;;14.25;60.58
20825;BME280;10573;50.936;6.978;2022-08-07T04:17:06;102083.00;;;14.29;59.95
20825;BME280;10573;50.936;6.978;2022-08-07T04:19:32;102082.72;;;14.32;60.39
20825;BME280;10573;50.936;6.978;2022-08-07T04:21:57;102088.03;;;14.24;60.85
20825;BME280;10573;50.936;6.978;2022-08-07T04:24:24;102083.00;;;14.29;60.90
20825;BME280;10573;50.936;6.978;2022-08-07T04:26:50;102085.28;;;14.24;60.91
20825;BME280;10573;50.936;6.978;2022-08-07T04:29:16;102088.75;;;14.26;60.75
20825;BME280;10573;50.936;6.978;2022-08-07T04:31:42;102093.69;;;14.32;60.53
20825;BME280;10573;50.936;6.978;2022-08-07T04:34:08;102095.63;;;14.41;60.05
20825;BME280;10573;50.936;6.978;2022-08-07T04:36:34;102088.41;;;14.40;60.02
20825;BME280;10573;50.936;6.978;2022-08-07T04:39:01;102087.41;;;14.41;60.23
20825;BME280;10573;50.936;6.978;2022-08-07T04:41:26;102088.69;;;14.37;60.14
20825;BME280;10573;50.936;6.978;2022-08-07T04:43:52;102080.47;;;14.47;60.25
20825;BME280;10573;50.936;6.978;2022-08-07T04:46:41;102093.34;;;14.47;60.17
20825;BME280;10573;50.936;6.978;2022-08-07T04:52:04;102099.19;;;14.32;60.79
20825;BME280;10573;50.936;6.978;2022-08-07T04:57:29;102098.41;;;14.51;60.42
20825;BME280;10573;50.936;6.978;2022-08-07T05:05:53;102108.03;;;14.46;60.42
20825;BME280;10573;50.936;6.978;2022-08-07T05:11:09;102112.91;;;14.63;59.42
20825;BME280;10573;50.936;6.978;2022-08-07T05:13:43;102112.03;;;14.63;59.13
20825;BME280;10573;50.936;6.978;2022-08-07T05:16:13;102114.09;;;14.70;59.08
20825;BME280;10573;50.936;6.978;2022-08-07T05:18:44;102109.03;;;14.66;58.84
20825;BME280;10573;50.936;6.978;2022-08-07T05:21:12;102110.34;;;14.71;58.31
20825;BME280;10573;50.936;6.978;2022-08-07T05:23:43;102110.41;;;14.81;58.29
20825;BME280;10573;50.936;6.978;2022-08-07T05:26:12;102103.19;;;14.90;58.22
20825;BME280;10573;50.936;6.978;2022-08-07T05:28:39;102114.91;;;14.92;58.15
20825;BME280;10573;50.936;6.978;2022-08-07T05:31:06;102118.19;;;14.86;58.00
20825;BME280;10573;50.936;6.978;2022-08-07T05:33:33;102121.09;;;14.94;57.49
20825;BME280;10573;50.936;6.978;2022-08-07T05:36:00;102113.00;;;14.92;57.48
20825;BME280;10573;50.936;6.978;2022-08-07T05:38:27;102119.66;;;14.90;57.35
20825;BME280;10573;50.936;6.978;2022-08-07T05:40:53;102122.50;;;14.79;58.03
20825;BME280;10573;50.936;6.978;2022-08-07T05:43:19;102120.25;;;14.93;58.35
20825;BME280;10573;50.936;6.978;2022-08-07T05:45:46;102113.88;;;14.93;58.50
20825;BME280;10573;50.936;6.978;2022-08-07T05:48:12;102112.19;;;15.12;58.26
20825;BME280;10573;50.936;6.978;2022-08-07T05:50:39;102124.06;;;15.22;58.29
20825;BME280;10573;50.936;6.978;2022-08-07T05:53:05;102117.97;;;15.18;58.16
20825;BME280;10573;50.936;6.978;2022-08-07T05:55:32;102128.97;;;15.28;58.15
20825;BME280;10573;50.936;6.978;2022-08-07T05:57:59;102129.16;;;15.46;57.38
20825;BME280;10573;50.936;6.978;2022-08-07T06:00:25;102122.03;;;15.53;57.37
20825;BME280;10573;50.936;6.978;2022-08-07T06:02:51;102119.16;;;15.55;56.84
20825;BME280;10573;50.936;6.978;2022-08-07T06:05:19;102123.78;;;15.44;56.20
20825;BME280;10573;50.936;6.978;2022-08-07T06:07:46;102124.09;;;15.61;56.71
20825;BME280;10573;50.936;6.978;2022-08-07T06:10:12;102127.41;;;15.74;55.12
20825;BME280;10573;50.936;6.978;2022-08-07T06:12:38;102130.16;;;15.84;55.26
20825;BME280;10573;50.936;6.978;2022-08-07T06:15:03;102126.97;;;15.99;53.47
20825;BME280;10573;50.936;6.978;2022-08-07T06:17:30;102132.75;;;16.05;54.63
20825;BME280;10573;50.936;6.978;2022-08-07T06:19:56;102128.09;;;16.06;54.53
20825;BME280;10573;50.936;6.978;2022-08-07T06:22:23;102140.28;;;16.13;53.61
20825;BME280;10573;50.936;6.978;2022-08-07T06:24:50;102134.75;;;16.23;53.12
20825;BME280;10573;50.936;6.978;2022-08-07T06:27:22;102140.41;;;16.12;53.20
20825;BME280;10573;50.936;6.978;2022-08-07T06:29:48;102140.47;;;16.49;53.32
20825;BME280;10573;50.936;6.978;2022-08-07T06:32:14;102139.09;;;16.63;52.80
20825;BME280;10573;50.936;6.978;2022-08-07T06:34:39;102138.59;;;16.77;52.13
20825;BME280;10573;50.936;6.978;2022-08-07T06:37:05;102138.22;;;17.00;51.23
20825;BME280;10573;50.936;6.978;2022-08-07T06:39:30;102133.00;;;16.97;52.20
20825;BME280;10573;50.936;6.978;2022-08-07T06:42:07;102132.97;;;17.07;52.06
20825;BME280;10573;50.936;6.978;2022-08-07T06:44:36;102133.09;;;17.05;51.62
20825;BME280;10573;50.936;6.978;2022-08-07T06:47:03;102125.06;;;17.22;50.79
20825;BME280;10573;50.936;6.978;2022-08-07T06:49:28;102122.22;;;17.50;50.77
20825;BME280;10573;50.936;6.978;2022-08-07T06:51:55;102122.28;;;17.40;49.66
20825;BME280;10573;50.936;6.978;2022-08-07T06:54:24;102127.56;;;17.33;49.89
20825;BME280;10573;50.936;6.978;2022-08-07T06:56:50;102123.50;;;17.55;49.67
20825;BME280;10573;50.936;6.978;2022-08-07T06:59:31;102121.84;;;17.63;49.90
20825;BME280;10573;50.936;6.978;2022-08-07T07:01:58;102124.81;;;17.69;48.30
20825;BME280;10573;50.936;6.978;2022-08-07T07:04:25;102124.19;;;17.93;49.00
20825;BME280;10573;50.936;6.978;2022-08-07T07:06:51;102119.94;;;17.81;49.18
20825;BME280;10573;50.936;6.978;2022-08-07T07:09:28;102117.38;;;18.06;48.29
20825;BME280;10573;50.936;6.978;2022-08-07T07:12:16;102121.75;;;18.17;48.32
20825;BME280;10573;50.936;6.978;2022-08-07T07:15:00;102118.31;;;18.15;48.52
20825;BME280;10573;50.936;6.978;2022-08-07T07:20:09;102125.50;;;18.60;46.74
20825;BME280;10573;50.936;6.978;2022-08-07T07:22:35;102121.69;;;18.61;46.51
20825;BME280;10573;50.936;6.978;2022-08-07T07:25:03;102116.91;;;18.71;46.29
20825;BME280;10573;50.936;6.978;2022-08-07T07:27:33;102112.19;;;18.90;46.46
20825;BME280;10573;50.936;6.978;2022-08-07T07:30:03;102107.41;;;19.08;45.58
20825;BME280;10573;50.936;6.978;2022-08-07T07:32:32;102107.78;;;19.22;45.09
20825;BME280;10573;50.936;6.978;2022-08-07T07:35:03;102110.53;;;19.14;44.63
20825;BME280;10573;50.936;6.978;2022-08-07T07:37:31;102093.78;;;19.07;44.70
20825;BME280;10573;50.936;6.978;2022-08-07T07:40:02;102096.75;;;19.38;44.97
20825;BME280;10573;50.936;6.978;2022-08-07T07:42:29;102101.94;;;19.50;43.88
20825;BME280;10573;50.936;6.978;2022-08-07T07:44:58;102097.81;;;19.78;43.33
20825;BME280;10573;50.936;6.978;2022-08-07T07:47:25;102095.59;;;19.90;43.33
20825;BME280;10573;50.936;6.978;2022-08-07T07:49:52;102096.44;;;20.07;42.34
20825;BME280;10573;50.936;6.978;2022-08-07T07:52:20;102091.28;;;19.96;41.95
20825;BME280;10573;50.936;6.978;2022-08-07T07:54:47;102083.97;;;20.11;40.80
20825;BME280;10573;50.936;6.978;2022-08-07T07:57:15;102087.06;;;20.25;40.26
20825;BME280;10573;50.936;6.978;2022-08-07T07:59:44;102089.81;;;20.33;40.16
20825;BME280;10573;50.936;6.978;2022-08-07T08:02:10;102090.47;;;20.43;40.25
20825;BME280;10573;50.936;6.978;2022-08-07T08:04:38;102081.94;;;20.61;39.59
20825;BME280;10573;50.936;6.978;2022-08-07T08:07:05;102082.69;;;20.95;38.97
20825;BME280;10573;50.936;6.978;2022-08-07T08:09:32;102087.53;;;20.93;39.44
20825;BME280;10573;50.936;6.978;2022-08-07T08:11:59;102076.75;;;20.98;38.62
20825;BME280;10573;50.936;6.978;2022-08-07T08:14:28;102087.38;;;21.18;38.43
20825;BME280;10573;50.936;6.978;2022-08-07T08:16:55;102078.66;;;21.29;37.56
20825;BME280;10573;50.936;6.978;2022-08-07T08:19:27;102075.94;;;21.44;37.94
20825;BME280;10573;50.936;6.978;2022-08-07T08:21:56;102076.44;;;21.71;37.33
20825;BME280;10573;50.936;6.978;2022-08-07T08:24:42;102074.97;;;21.60;36.74
20825;BME280;10573;50.936;6.978;2022-08-07T08:27:32;102075.16;;;21.96;36.19
20825;BME280;10573;50.936;6.978;2022-08-07T08:30:12;102072.41;;;22.11;36.34
20825;BME280;10573;50.936;6.978;2022-08-07T08:32:43;102067.66;;;22.50;36.37
20825;BME280;10573;50.936;6.978;2022-08-07T08:35:13;102065.47;;;22.97;35.45
20825;BME280;10573;50.936;6.978;2022-08-07T08:37:42;102062.16;;;23.08;34.49
20825;BME280;10573;50.936;6.978;2022-08-07T08:40:15;102061.91;;;23.03;34.46
20825;BME280;10573;50.936;6.978;2022-08-07T08:42:51;102049.78;;;23.11;34.42
20825;BME280;10573;50.936;6.978;2022-08-07T08:45:23;102052.09;;;23.22;34.61
20825;BME280;10573;50.936;6.978;2022-08-07T08:50:47;102039.03;;;23.44;34.03
20825;BME280;10573;50.936;6.978;2022-08-07T08:53:18;102043.34;;;23.90;33.29
20825;BME280;10573;50.936;6.978;2022-08-07T08:55:59;102033.81;;;24.55;33.36
20825;BME280;10573;50.936;6.978;2022-08-07T09:01:50;102027.53;;;24.74;31.76
20825;BME280;10573;50.936;6.978;2022-08-07T09:04:35;102028.25;;;25.03;31.03
20825;BME280;10573;50.936;6.978;2022-08-07T09:12:51;102012.16;;;27.17;27.50
20825;BME280;10573;50.936;6.978;2022-08-07T09:15:43;102016.50;;;26.22;26.82
20825;BME280;10573;50.936;6.978;2022-08-07T09:20:58;102014.34;;;27.15;27.19
20825;BME280;10573;50.936;6.978;2022-08-07T09:24:41;102011.75;;;27.20;27.73
20825;BME280;10573;50.936;6.978;2022-08-07T09:26:45;102007.19;;;26.87;28.71
20825;BME280;10573;50.936;6.978;2022-08-07T09:34:53;102005.63;;;27.29;27.57
20825;BME280;10573;50.936;6.978;2022-08-07T09:40:37;101989.31;;;27.26;26.66
20825;BME280;10573;50.936;6.978;2022-08-07T09:51:20;101987.94;;;27.86;24.47
20825;BME280;10573;50.936;6.978;2022-08-07T09:53:56;101974.31;;;28.45;24.58
20825;BME280;10573;50.936;6.978;2022-08-07T10:07:39;101967.25;;;26.79;26.29
20825;BME280;10573;50.936;6.978;2022-08-07T10:19:07;101952.09;;;28.81;23.64
20825;BME280;10573;50.936;6.978;2022-08-07T10:30:06;101946.13;;;28.59;23.53
20825;BME280;10573;50.936;6.978;2022-08-07T10:35:45;101951.16;;;30.53;21.55
20825;BME280;10573;50.936;6.978;2022-08-07T10:41:35;101935.53;;;29.69;22.46
20825;BME280;10573;50.936;6.978;2022-08-07T10:47:26;101934.59;;;30.16;21.95
20825;BME280;10573;50.936;6.978;2022-08-07T10:50:10;101930.44;;;30.19;21.62
20825;BME280;10573;50.936;6.978;2022-08-07T10:52:46;101917.94;;;29.86;23.14
20825;BME280;10573;50.936;6.978;2022-08-07T10:55:35;101917.88;;;29.03;22.60
20825;BME280;10573;50.936;6.978;2022-08-07T10:58:14;101919.94;;;29.07;23.45
20825;BME280;10573;50.936;6.978;2022-08-07T11:01:15;101918.72;;;30.22;22.39
20825;BME280;10573;50.936;6.978;2022-08-07T11:03:58;101914.34;;;30.43;21.82
20825;BME280;10573;50.936;6.978;2022-08-07T11:06:33;101901.91;;;31.13;20.78
20825;BME280;10573;50.936;6.978;2022-08-07T11:09:21;101891.00;;;31.17;22.23
20825;BME280;10573;50.936;6.978;2022-08-07T11:14:29;101894.25;;;31.09;21.67
20825;BME280;10573;50.936;6.978;2022-08-07T11:20:25;101893.25;;;32.65;20.87
20825;BME280;10573;50.936;6.978;2022-08-07T11:23:17;101882.03;;;31.37;21.22
20825;BME280;10573;50.936;6.978;2022-08-07T11:29:08;101891.94;;;29.55;22.25
20825;BME280;10573;50.936;6.978;2022-08-07T11:31:46;101885.66;;;30.87;21.11
20825;BME280;10573;50.936;6.978;2022-08-07T11:34:23;101885.28;;;30.08;22.39
20825;BME280;10573;50.936;6.978;2022-08-07T11:40:28;101869.06;;;32.42;20.20
20825;BME280;10573;50.936;6.978;2022-08-07T11:54:15;101855.91;;;33.18;20.21
20825;BME280;10573;50.936;6.978;2022-08-07T12:07:31;101856.44;;;30.01;22.14
20825;BME280;10573;50.936;6.978;2022-08-07T12:10:01;101856.94;;;30.27;21.61
20825;BME280;10573;50.936;6.978;2022-08-07T12:12:38;101852.63;;;32.66;20.15
20825;BME280;10573;50.936;6.978;2022-08-07T12:15:26;101848.88;;;33.63;19.00
20825;BME280;10573;50.936;6.978;2022-08-07T12:18:11;101845.25;;;34.52;17.94
20825;BME280;10573;50.936;6.978;2022-08-07T12:20:45;101850.84;;;34.31;19.31
20825;BME280;10573;50.936;6.978;2022-08-07T12:23:37;101837.47;;;32.72;18.98
20825;BME280;10573;50.936;6.978;2022-08-07T12:26:12;101846.34;;;34.45;17.89
20825;BME280;10573;50.936;6.978;2022-08-07T12:28:47;101842.94;;;35.47;17.11
20825;BME280;10573;50.936;6.978;2022-08-07T12:34:02;101832.72;;;35.51;16.86
20825;BME280;10573;50.936;6.978;2022-08-07T12:36:29;101840.13;;;34.38;18.25
20825;BME280;10573;50.936;6.978;2022-08-07T12:38:57;101830.06;;;31.28;20.21
20825;BME280;10573;50.936;6.978;2022-08-07T12:41:26;101832.78;;;31.40;20.68
20825;BME280;10573;50.936;6.978;2022-08-07T12:43:54;101833.41;;;31.64;20.88
20825;BME280;10573;50.936;6.978;2022-08-07T12:49:54;101824.34;;;33.26;19.85
20825;BME280;10573;50.936;6.978;2022-08-07T12:55:01;101817.16;;;34.29;18.60
20825;BME280;10573;50.936;6.978;2022-08-07T12:57:30;101814.63;;;33.54;18.80
20825;BME280;10573;50.936;6.978;2022-08-07T12:59:58;101817.19;;;32.48;19.81
20825;BME280;10573;50.936;6.978;2022-08-07T13:05:02;101814.03;;;33.47;19.31
20825;BME280;10573;50.936;6.978;2022-08-07T13:10:29;101807.59;;;32.76;19.29
20825;BME280;10573;50.936;6.978;2022-08-07T13:13:05;101804.41;;;34.22;18.96
20825;BME280;10573;50.936;6.978;2022-08-07T13:18:49;101795.66;;;35.37;16.88
20825;BME280;10573;50.936;6.978;2022-08-07T13:21:21;101791.41;;;34.16;17.89
20825;BME280;10573;50.936;6.978;2022-08-07T13:26:45;101778.41;;;35.18;17.26
20825;BME280;10573;50.936;6.978;2022-08-07T13:29:17;101780.69;;;35.05;16.71
20825;BME280;10573;50.936;6.978;2022-08-07T13:31:49;101780.63;;;36.81;16.58
20825;BME280;10573;50.936;6.978;2022-08-07T13:34:34;101772.34;;;36.10;15.83
20825;BME280;10573;50.936;6.978;2022-08-07T13:37:24;101784.09;;;34.45;17.85
20825;BME280;10573;50.936;6.978;2022-08-07T13:40:13;101778.66;;;33.39;17.92
20825;BME280;10573;50.936;6.978;2022-08-07T13:42:41;101769.91;;;35.12;17.28
20825;BME280;10573;50.936;6.978;2022-08-07T13:45:09;101763.03;;;35.44;17.42
20825;BME280;10573;50.936;6.978;2022-08-07T13:47:37;101760.28;;;35.03;17.18
20825;BME280;10573;50.936;6.978;2022-08-07T13:50:06;101765.75;;;33.64;17.72
20825;BME280;10573;50.936;6.978;2022-08-07T13:52:37;101756.31;;;34.11;17.61
20825;BME280;10573;50.936;6.978;2022-08-07T13:55:12;101769.31;;;34.18;17.50
20825;BME280;10573;50.936;6.978;2022-08-07T13:57:41;101771.13;;;33.12;18.56
20825;BME280;10573;50.936;6.978;2022-08-07T14:00:08;101764.22;;;33.31;18.77
20825;BME280;10573;50.936;6.978;2022-08-07T14:02:35;101756.19;;;32.15;18.89
20825;BME280;10573;50.936;6.978;2022-08-07T14:05:05;101759.47;;;33.46;19.42
20825;BME280;10573;50.936;6.978;2022-08-07T14:07:32;101752.34;;;34.02;17.69
20825;BME280;10573;50.936;6.978;2022-08-07T14:10:01;101744.47;;;34.97;17.22
20825;BME280;10573;50.936;6.978;2022-08-07T14:12:37;101740.66;;;36.38;15.65
20825;BME280;10573;50.936;6.978;2022-08-07T14:15:15;101736.50;;;36.89;15.79
20825;BME280;10573;50.936;6.978;2022-08-07T14:17:42;101741.50;;;36.43;15.56
20825;BME280;10573;50.936;6.978;2022-08-07T14:20:18;101744.81;;;36.11;16.36
20825;BME280;10573;50.936;6.978;2022-08-07T14:22:49;101722.88;;;37.39;15.94
20825;BME280;10573;50.936;6.978;2022-08-07T14:25:16;101736.09;;;36.02;16.92
20825;BME280;10573;50.936;6.978;2022-08-07T14:27:44;101723.84;;;37.05;16.12
20825;BME280;10573;50.936;6.978;2022-08-07T14:30:11;101727.28;;;36.04;16.02
20825;BME280;10573;50.936;6.978;2022-08-07T14:32:45;101714.91;;;37.60;14.78
20825;BME280;10573;50.936;6.978;2022-08-07T14:35:24;101717.22;;;36.56;16.32
20825;BME280;10573;50.936;6.978;2022-08-07T14:37:51;101719.94;;;36.37;16.96
20825;BME280;10573;50.936;6.978;2022-08-07T14:40:23;101714.28;;;36.67;16.32
20825;BME280;10573;50.936;6.978;2022-08-07T14:43:08;101710.97;;;35.75;16.45
20825;BME280;10573;50.936;6.978;2022-08-07T14:45:45;101722.22;;;33.60;17.82
20825;BME280;10573;50.936;6.978;2022-08-07T14:48:12;101715.31;;;34.81;17.55
20825;BME280;10573;50.936;6.978;2022-08-07T14:50:48;101710.44;;;35.07;17.29
20825;BME280;10573;50.936;6.978;2022-08-07T14:53:15;101711.59;;;35.01;16.84
20825;BME280;10573;50.936;6.978;2022-08-07T14:55:42;101693.31;;;35.93;16.49
20825;BME280;10573;50.936;6.978;2022-08-07T14:58:10;101703.16;;;36.06;16.02
20825;BME280;10573;50.936;6.978;2022-08-07T15:00:38;101708.69;;;37.58;15.17
20825;BME280;10573;50.936;6.978;2022-08-07T15:03:06;101702.59;;;37.22;15.63
20825;BME280;10573;50.936;6.978;2022-08-07T15:05:33;101705.69;;;37.01;15.35
20825;BME280;10573;50.936;6.978;2022-08-07T15:08:03;101702.09;;;36.37;15.79
20825;BME280;10573;50.936;6.978;2022-08-07T15:10:29;101695.72;;;36.16;15.81
20825;BME280;10573;50.936;6.978;2022-08-07T15:12:58;101707.72;;;33.31;18.81
20825;BME280;10573;50.936;6.978;2022-08-07T15:15:38;101702.59;;;34.17;17.89
20825;BME280;10573;50.936;6.978;2022-08-07T15:18:19;101701.09;;;35.72;16.54
20825;BME280;10573;50.936;6.978;2022-08-07T15:20:46;101694.09;;;34.01;17.36
20825;BME280;10573;50.936;6.978;2022-08-07T15:23:19;101704.47;;;33.11;18.85
20825;BME280;10573;50.936;6.978;2022-08-07T15:25:53;101702.69;;;31.65;20.16
20825;BME280;10573;50.936;6.978;2022-08-07T15:28:22;101699.59;;;32.96;20.07